createdAt,value
2022-10-28T00:01:42.638Z,6.97
2022-10-28T00:05:44.759Z,9.43
2022-10-28T00:09:45.859Z,9.97
2022-10-28T00:13:47.483Z,9.07
2022-10-28T00:17:48.654Z,8.10
2022-10-28T00:21:49.838Z,7.73
2022-10-28T00:25:51.018Z,7.70
2022-10-28T00:29:52.249Z,8.93
2022-10-28T00:33:54.048Z,8.60
2022-10-28T00:37:55.239Z,8.23
2022-10-28T00:42:01.171Z,7.60
2022-10-28T00:46:03.766Z,7.53
2022-10-28T00:50:28.611Z,7.23
2022-10-28T00:54:30.907Z,7.93
2022-10-28T00:58:32.298Z,7.53
2022-10-28T01:02:37.346Z,8.70
2022-10-28T01:06:38.808Z,8.60
2022-10-28T01:11:00.183Z,8.70
2022-10-28T01:15:08.355Z,8.03
2022-10-28T01:19:31.977Z,8.43
2022-10-28T01:23:55.997Z,8.57
2022-10-28T01:28:18.797Z,8.93
2022-10-28T01:32:30.253Z,8.20
2022-10-28T01:36:35.801Z,8.80
2022-10-28T01:40:59.496Z,9.00
2022-10-28T01:45:10.561Z,8.63
2022-10-28T01:49:34.376Z,7.90
2022-10-28T01:53:40.962Z,7.90
2022-10-28T01:57:43.416Z,7.90
2022-10-28T02:01:45.585Z,8.27
2022-10-28T02:05:53.723Z,8.50
2022-10-28T02:09:58.792Z,10.53
2022-10-28T02:14:12.455Z,9.03
2022-10-28T02:18:40.442Z,8.50
2022-10-28T02:22:48.719Z,9.47
2022-10-28T02:26:53.711Z,10.23
2022-10-28T02:31:01.719Z,10.83
2022-10-28T02:35:05.286Z,10.70
2022-10-28T02:39:07.295Z,10.50
2022-10-28T02:43:11.767Z,10.33
2022-10-28T02:47:17.558Z,9.63
2022-10-28T02:51:26.010Z,9.47
2022-10-28T02:55:30.904Z,9.33
2022-10-28T02:59:32.283Z,10.83
2022-10-28T03:03:33.580Z,9.90
2022-10-28T03:07:34.759Z,9.27
2022-10-28T03:11:35.967Z,10.10
2022-10-28T03:15:37.170Z,10.07
2022-10-28T03:19:38.373Z,10.27
2022-10-28T03:23:39.462Z,11.47
2022-10-28T03:27:40.860Z,11.30
2022-10-28T03:31:42.352Z,12.47
2022-10-28T03:35:43.958Z,11.00
2022-10-28T03:39:45.149Z,10.33
2022-10-28T03:43:46.327Z,10.30
2022-10-28T03:47:47.507Z,10.20
2022-10-28T03:51:49.098Z,8.93
2022-10-28T03:55:54.399Z,9.20
2022-10-28T03:59:55.684Z,10.50
2022-10-28T04:03:56.816Z,10.10
2022-10-28T04:07:58.051Z,9.23
2022-10-28T04:11:59.272Z,9.90
2022-10-28T04:16:01.459Z,9.47
2022-10-28T04:20:03.569Z,9.43
2022-10-28T04:24:05.511Z,9.67
2022-10-28T04:28:06.798Z,9.17
2022-10-28T04:32:08.388Z,7.83
2022-10-28T04:36:09.589Z,9.30
2022-10-28T04:40:11.379Z,8.63
2022-10-28T04:44:12.665Z,9.53
2022-10-28T04:48:13.859Z,7.83
2022-10-28T04:52:15.899Z,9.67
2022-10-28T04:56:17.371Z,9.57
2022-10-28T05:00:18.858Z,9.13
2022-10-28T05:04:20.036Z,8.53
2022-10-28T05:08:21.226Z,8.37
2022-10-28T05:12:22.307Z,10.10
2022-10-28T05:16:23.421Z,9.37
2022-10-28T05:20:24.617Z,7.90
2022-10-28T05:24:25.792Z,8.43
2022-10-28T05:28:26.976Z,8.40
2022-10-28T05:32:28.069Z,7.93
2022-10-28T05:36:29.244Z,7.37
2022-10-28T05:40:32.036Z,7.43
2022-10-28T05:44:33.217Z,7.93
2022-10-28T05:48:34.400Z,7.87
2022-10-28T05:52:35.614Z,8.07
2022-10-28T05:56:36.804Z,7.10
2022-10-28T06:00:38.098Z,7.20
2022-10-28T06:04:39.298Z,7.00
2022-10-28T06:08:40.470Z,7.90
2022-10-28T06:12:40.027Z,7.07
2022-10-28T06:16:41.590Z,7.63
2022-10-28T06:20:42.882Z,7.53
2022-10-28T06:24:44.134Z,7.60
2022-10-28T06:28:46.445Z,6.50
2022-10-28T06:32:47.630Z,7.57
2022-10-28T06:36:48.919Z,7.03
2022-10-28T06:40:52.402Z,7.53
2022-10-28T06:44:53.084Z,7.93
2022-10-28T06:48:56.273Z,10.83
2022-10-28T06:52:58.065Z,9.43
2022-10-28T06:56:59.259Z,11.70
2022-10-28T07:01:05.452Z,11.83
2022-10-28T07:05:07.423Z,11.13
2022-10-28T07:09:12.255Z,11.23
2022-10-28T07:13:13.409Z,12.97
2022-10-28T07:17:14.589Z,12.13
2022-10-28T07:21:17.558Z,10.80
2022-10-28T07:25:18.742Z,7.67
2022-10-28T07:29:19.934Z,7.57
2022-10-28T07:33:21.099Z,8.30
2022-10-28T07:37:22.174Z,7.80
2022-10-28T07:41:24.165Z,7.90
2022-10-28T07:45:25.365Z,7.93
2022-10-28T07:49:26.551Z,8.37
2022-10-28T07:53:28.902Z,7.67
2022-10-28T07:57:30.426Z,9.40
2022-10-28T08:01:31.584Z,7.93
2022-10-28T08:05:32.883Z,8.60
2022-10-28T08:09:34.061Z,9.03
2022-10-28T08:13:39.305Z,8.83
2022-10-28T08:17:38.302Z,8.10
2022-10-28T08:21:39.536Z,7.30
2022-10-28T08:25:49.595Z,8.30
2022-10-28T08:29:52.565Z,6.60
2022-10-28T08:33:53.669Z,7.23
2022-10-28T08:37:55.195Z,7.63
2022-10-28T08:42:17.130Z,6.93
2022-10-28T08:46:27.642Z,6.80
2022-10-28T08:50:31.225Z,6.33
2022-10-28T08:54:39.353Z,7.13
2022-10-28T08:58:43.437Z,6.30
2022-10-28T09:02:48.419Z,6.83
2022-10-28T09:06:49.500Z,6.47
2022-10-28T09:11:15.678Z,6.50
2022-10-28T09:15:29.857Z,6.07
2022-10-28T09:19:41.091Z,41.60
2022-10-28T09:23:52.087Z,16.50
2022-10-28T09:28:00.059Z,6.50
2022-10-28T09:32:23.181Z,5.07
2022-10-28T09:36:34.080Z,5.47
2022-10-28T09:40:37.906Z,5.60
2022-10-28T09:44:42.701Z,6.00
2022-10-28T09:48:50.584Z,5.40
2022-10-28T09:53:24.888Z,5.53
2022-10-28T09:57:29.882Z,5.37
2022-10-28T10:01:37.176Z,5.50
2022-10-28T10:05:42.249Z,5.60
2022-10-28T10:09:44.020Z,4.53
2022-10-28T10:13:45.314Z,5.03
2022-10-28T10:17:47.112Z,5.17
2022-10-28T10:21:53.548Z,4.57
2022-10-28T10:25:58.242Z,5.10
2022-10-28T10:29:59.716Z,5.00
2022-10-28T10:34:01.339Z,4.97
2022-10-28T10:38:05.128Z,5.80
2022-10-28T10:42:16.825Z,5.70
2022-10-28T10:46:17.896Z,4.90
2022-10-28T10:50:22.810Z,5.00
2022-10-28T10:54:31.120Z,5.70
2022-10-28T10:58:36.010Z,5.00
2022-10-28T11:02:38.795Z,5.80
2022-10-28T11:06:42.897Z,5.90
2022-10-28T11:10:44.094Z,5.40
2022-10-28T11:15:00.019Z,5.83
2022-10-28T11:19:05.026Z,6.50
2022-10-28T11:23:26.767Z,4.80
2022-10-28T11:27:51.739Z,10.60
2022-10-28T11:32:10.086Z,6.50
2022-10-28T11:36:24.336Z,6.10
2022-10-28T11:40:47.162Z,5.07
2022-10-28T11:44:58.189Z,4.63
2022-10-28T11:49:32.016Z,5.10
2022-10-28T11:53:45.616Z,5.50
2022-10-28T11:58:05.632Z,4.70
2022-10-28T12:02:43.267Z,3.70
2022-10-28T12:06:51.337Z,4.40
2022-10-28T12:11:05.045Z,4.10
2022-10-28T12:15:34.304Z,4.23
2022-10-28T12:19:47.921Z,4.57
2022-10-28T12:23:50.120Z,4.10
2022-10-28T12:27:54.900Z,4.20
2022-10-28T12:32:12.069Z,4.30
2022-10-28T12:36:32.585Z,3.90
2022-10-28T12:40:40.655Z,4.40
2022-10-28T12:44:42.832Z,4.50
2022-10-28T12:48:50.260Z,3.83
2022-10-28T12:53:03.661Z,3.73
2022-10-28T12:57:13.441Z,4.40
2022-10-28T13:01:17.539Z,3.83
2022-10-28T13:05:22.581Z,4.30
2022-10-28T13:09:51.937Z,4.63
2022-10-28T13:14:16.905Z,3.80
2022-10-28T13:18:42.970Z,4.60
2022-10-28T13:23:07.899Z,4.53
2022-10-28T13:27:12.478Z,4.07
2022-10-28T13:31:14.814Z,3.67
2022-10-28T13:35:25.604Z,4.23
2022-10-28T13:39:44.438Z,4.57
2022-10-28T13:43:53.756Z,4.00
2022-10-28T13:48:15.041Z,4.23
2022-10-28T13:52:20.595Z,4.10
2022-10-28T13:56:28.614Z,7.10
2022-10-28T14:00:33.617Z,5.53
2022-10-28T14:04:37.416Z,5.60
2022-10-28T14:08:40.630Z,4.90
2022-10-28T14:12:45.615Z,4.63
2022-10-28T14:16:46.826Z,4.33
2022-10-28T14:20:51.823Z,4.60
2022-10-28T14:24:53.003Z,5.07
2022-10-28T14:28:54.803Z,4.67
2022-10-28T14:33:00.784Z,4.10
2022-10-28T14:37:08.926Z,4.50
2022-10-28T14:41:36.757Z,4.17
2022-10-28T14:46:01.480Z,4.60
2022-10-28T14:50:21.265Z,3.80
2022-10-28T14:54:46.281Z,4.57
2022-10-28T14:58:48.028Z,6.20
2022-10-28T15:02:50.034Z,5.00
2022-10-28T15:06:51.916Z,5.23
2022-10-28T15:10:53.309Z,4.33
2022-10-28T15:14:57.214Z,5.00
2022-10-28T15:18:58.372Z,4.97
2022-10-28T15:23:15.357Z,4.90
2022-10-28T15:27:17.051Z,4.40
2022-10-28T15:31:18.393Z,4.10
2022-10-28T15:35:32.620Z,5.40
2022-10-28T15:39:34.858Z,5.10
2022-10-28T15:43:36.875Z,5.23
2022-10-28T15:47:38.159Z,5.43
2022-10-28T15:51:39.323Z,5.83
2022-10-28T15:56:06.599Z,4.73
2022-10-28T15:59:47.932Z,5.23
2022-10-28T16:03:49.242Z,4.53
2022-10-28T16:07:50.431Z,6.10
2022-10-28T16:11:58.001Z,7.00
2022-10-28T16:16:03.008Z,6.17
2022-10-28T16:20:18.828Z,6.80
2022-10-28T16:24:20.248Z,5.83
2022-10-28T16:28:26.357Z,6.10
2022-10-28T16:32:32.743Z,6.40
2022-10-28T16:36:33.780Z,5.50
2022-10-28T16:40:51.105Z,6.50
2022-10-28T16:44:38.021Z,5.20
2022-10-28T16:48:40.073Z,5.87
2022-10-28T16:52:41.281Z,11.10
2022-10-28T16:56:42.458Z,5.70
2022-10-28T17:00:44.015Z,5.53
2022-10-28T17:04:45.197Z,6.93
2022-10-28T17:09:03.231Z,6.20
2022-10-28T17:12:49.574Z,5.57
2022-10-28T17:16:50.758Z,6.43
2022-10-28T17:21:01.126Z,5.43
2022-10-28T17:25:02.558Z,5.30
2022-10-28T17:29:03.746Z,5.50
2022-10-28T17:33:04.824Z,6.03
2022-10-28T17:37:07.011Z,5.37
2022-10-28T17:41:08.196Z,7.00
2022-10-28T17:45:10.713Z,5.63
2022-10-28T17:49:11.996Z,5.30
2022-10-28T17:53:13.987Z,5.20
2022-10-28T17:57:15.180Z,5.70
2022-10-28T18:01:16.354Z,5.40
2022-10-28T18:05:17.584Z,6.27
2022-10-28T18:09:19.135Z,5.77
2022-10-28T18:13:22.806Z,5.90
2022-10-28T18:17:24.002Z,6.03
2022-10-28T18:21:25.316Z,6.70
2022-10-28T18:25:26.406Z,9.37
2022-10-28T18:29:27.483Z,13.13
2022-10-28T18:33:32.876Z,11.50
2022-10-28T18:37:34.052Z,9.90
2022-10-28T18:41:38.961Z,8.93
2022-10-28T18:45:40.139Z,8.60
2022-10-28T18:49:41.225Z,9.10
2022-10-28T18:53:45.637Z,8.90
2022-10-28T18:57:51.802Z,8.70
2022-10-28T19:01:53.036Z,10.13
2022-10-28T19:06:03.582Z,9.40
2022-10-28T19:10:05.480Z,8.70
2022-10-28T19:14:07.760Z,11.67
2022-10-28T19:18:08.934Z,11.20
2022-10-28T19:22:11.229Z,11.83
2022-10-28T19:26:13.099Z,10.87
2022-10-28T19:30:14.225Z,11.60
2022-10-28T19:34:15.425Z,12.83
2022-10-28T19:38:16.606Z,12.43
2022-10-28T19:42:17.728Z,9.40
2022-10-28T19:46:20.364Z,9.23
2022-10-28T19:50:21.484Z,13.13
2022-10-28T19:54:22.580Z,11.53
2022-10-28T19:58:23.961Z,8.47
2022-10-28T20:02:25.305Z,9.23
2022-10-28T20:06:32.984Z,8.87
2022-10-28T20:10:34.166Z,8.80
2022-10-28T20:14:35.433Z,8.20
2022-10-28T20:18:37.460Z,7.40
2022-10-28T20:22:42.174Z,11.50
2022-10-28T20:26:41.643Z,19.67
2022-10-28T20:30:42.807Z,30.60
2022-10-28T20:34:44.009Z,29.57
2022-10-28T20:38:45.193Z,17.57
2022-10-28T20:42:46.278Z,10.40
2022-10-28T20:46:47.356Z,10.30
2022-10-28T20:50:53.743Z,7.33
2022-10-28T20:54:54.917Z,7.37
2022-10-28T20:58:57.251Z,7.00
2022-10-28T21:02:58.780Z,9.87
2022-10-28T21:07:00.454Z,7.60
2022-10-28T21:11:03.270Z,8.13
2022-10-28T21:15:05.509Z,7.27
2022-10-28T21:19:06.729Z,8.30
2022-10-28T21:23:07.903Z,6.40
2022-10-28T21:27:09.105Z,8.10
2022-10-28T21:31:12.394Z,14.93
2022-10-28T21:35:13.698Z,19.13
2022-10-28T21:39:14.890Z,12.23
2022-10-28T21:43:15.956Z,8.70
2022-10-28T21:47:17.127Z,7.83
2022-10-28T21:51:18.352Z,7.20
2022-10-28T21:55:33.832Z,9.20
2022-10-28T21:59:22.719Z,14.17
2022-10-28T22:03:23.816Z,13.30
2022-10-28T22:07:24.910Z,10.53
2022-10-28T22:11:26.392Z,8.70
2022-10-28T22:15:27.575Z,8.53
2022-10-28T22:19:28.761Z,8.47
2022-10-28T22:23:30.761Z,7.40
2022-10-28T22:27:32.033Z,7.87
2022-10-28T22:31:33.522Z,8.40
2022-10-28T22:35:34.718Z,7.70
2022-10-28T22:39:35.912Z,7.03
2022-10-28T22:43:38.034Z,7.93
2022-10-28T22:47:39.228Z,7.47
2022-10-28T22:51:40.331Z,7.10
2022-10-28T22:55:41.619Z,6.80
2022-10-28T22:59:42.811Z,7.70
2022-10-28T23:03:46.304Z,7.53
2022-10-28T23:07:47.464Z,8.63
2022-10-28T23:11:48.754Z,8.10
2022-10-28T23:15:49.920Z,8.03
2022-10-28T23:19:51.031Z,7.70
2022-10-28T23:23:57.242Z,8.03
2022-10-28T23:27:58.930Z,9.70
2022-10-28T23:32:00.324Z,9.77
2022-10-28T23:36:05.957Z,7.87
2022-10-28T23:44:10.555Z,9.30
2022-10-28T23:48:11.633Z,9.00
2022-10-28T23:52:12.722Z,9.47
2022-10-28T23:56:13.900Z,9.00
